sensor_id;sensor_type;location;lat;lon;timestamp;P1;durP1;ratioP1;P2;durP2;ratioP2
65459;SDS011;52058;49.822;6.754;2022-07-01T00:00:07;1.90;;;1.40;;
65459;SDS011;52058;49.822;6.754;2022-07-01T00:02:34;2.75;;;1.80;;
65459;SDS011;52058;49.822;6.754;2022-07-01T00:04:59;2.78;;;1.63;;
65459;SDS011;52058;49.822;6.754;2022-07-01T00:07:25;3.00;;;2.00;;
65459;SDS011;52058;49.822;6.754;2022-07-01T00:09:50;2.50;;;1.83;;
65459;SDS011;52058;49.822;6.754;2022-07-01T00:12:15;2.88;;;1.77;;
65459;SDS011;52058;49.822;6.754;2022-07-01T00:14:41;3.05;;;1.80;;
65459;SDS011;52058;49.822;6.754;2022-07-01T00:17:07;2.92;;;1.77;;
65459;SDS011;52058;49.822;6.754;2022-07-01T00:19:32;3.15;;;1.60;;
65459;SDS011;52058;49.822;6.754;2022-07-01T00:21:58;4.10;;;1.58;;
65459;SDS011;52058;49.822;6.754;2022-07-01T00:24:23;4.57;;;1.42;;
65459;SDS011;52058;49.822;6.754;2022-07-01T00:26:49;1.85;;;1.42;;
65459;SDS011;52058;49.822;6.754;2022-07-01T00:29:14;3.08;;;1.48;;
65459;SDS011;52058;49.822;6.754;2022-07-01T00:31:40;3.10;;;1.42;;
65459;SDS011;52058;49.822;6.754;2022-07-01T00:34:05;2.92;;;1.38;;
65459;SDS011;52058;49.822;6.754;2022-07-01T00:36:30;1.90;;;1.30;;
65459;SDS011;52058;49.822;6.754;2022-07-01T00:38:56;2.05;;;1.10;;
65459;SDS011;52058;49.822;6.754;2022-07-01T00:41:21;1.67;;;1.00;;
65459;SDS011;52058;49.822;6.754;2022-07-01T00:43:47;1.80;;;1.40;;
65459;SDS011;52058;49.822;6.754;2022-07-01T00:46:12;3.00;;;1.00;;
65459;SDS011;52058;49.822;6.754;2022-07-01T00:48:38;3.40;;;1.00;;
65459;SDS011;52058;49.822;6.754;2022-07-01T00:51:03;1.40;;;0.80;;
65459;SDS011;52058;49.822;6.754;2022-07-01T00:53:28;3.08;;;0.90;;
65459;SDS011;52058;49.822;6.754;2022-07-01T00:55:54;1.52;;;1.00;;
65459;SDS011;52058;49.822;6.754;2022-07-01T00:58:20;1.70;;;0.90;;
65459;SDS011;52058;49.822;6.754;2022-07-01T01:00:46;1.17;;;0.82;;
65459;SDS011;52058;49.822;6.754;2022-07-01T01:03:11;1.40;;;1.00;;
65459;SDS011;52058;49.822;6.754;2022-07-01T01:05:37;1.40;;;0.93;;
65459;SDS011;52058;49.822;6.754;2022-07-01T01:08:02;1.42;;;0.90;;
65459;SDS011;52058;49.822;6.754;2022-07-01T01:10:28;1.38;;;0.80;;
65459;SDS011;52058;49.822;6.754;2022-07-01T01:12:55;0.88;;;0.88;;
65459;SDS011;52058;49.822;6.754;2022-07-01T01:15:21;1.25;;;0.90;;
65459;SDS011;52058;49.822;6.754;2022-07-01T01:17:47;3.08;;;1.00;;
65459;SDS011;52058;49.822;6.754;2022-07-01T01:20:18;2.05;;;1.00;;
65459;SDS011;52058;49.822;6.754;2022-07-01T01:22:45;1.50;;;1.40;;
65459;SDS011;52058;49.822;6.754;2022-07-01T01:25:11;1.27;;;0.80;;
65459;SDS011;52058;49.822;6.754;2022-07-01T01:27:37;0.82;;;0.75;;
65459;SDS011;52058;49.822;6.754;2022-07-01T01:30:03;2.58;;;0.98;;
65459;SDS011;52058;49.822;6.754;2022-07-01T01:32:30;1.05;;;0.90;;
65459;SDS011;52058;49.822;6.754;2022-07-01T01:34:55;1.42;;;1.10;;
65459;SDS011;52058;49.822;6.754;2022-07-01T01:37:21;1.88;;;1.20;;
65459;SDS011;52058;49.822;6.754;2022-07-01T01:39:46;2.35;;;1.23;;
65459;SDS011;52058;49.822;6.754;2022-07-01T01:42:11;2.33;;;1.10;;
65459;SDS011;52058;49.822;6.754;2022-07-01T01:44:37;2.00;;;1.20;;
65459;SDS011;52058;49.822;6.754;2022-07-01T01:47:02;1.55;;;1.15;;
65459;SDS011;52058;49.822;6.754;2022-07-01T01:49:28;1.60;;;1.15;;
65459;SDS011;52058;49.822;6.754;2022-07-01T01:51:53;1.30;;;1.10;;
65459;SDS011;52058;49.822;6.754;2022-07-01T01:54:19;1.85;;;1.15;;
65459;SDS011;52058;49.822;6.754;2022-07-01T01:56:45;2.17;;;1.25;;
65459;SDS011;52058;49.822;6.754;2022-07-01T01:59:10;1.20;;;1.10;;
65459;SDS011;52058;49.822;6.754;2022-07-01T02:01:37;1.75;;;1.23;;
65459;SDS011;52058;49.822;6.754;2022-07-01T02:04:03;1.42;;;1.00;;
65459;SDS011;52058;49.822;6.754;2022-07-01T02:06:28;1.30;;;1.13;;
65459;SDS011;52058;49.822;6.754;2022-07-01T02:08:54;2.53;;;1.60;;
65459;SDS011;52058;49.822;6.754;2022-07-01T02:11:19;2.03;;;1.35;;
65459;SDS011;52058;49.822;6.754;2022-07-01T02:13:44;2.33;;;1.35;;
65459;SDS011;52058;49.822;6.754;2022-07-01T02:16:10;2.40;;;1.58;;
65459;SDS011;52058;49.822;6.754;2022-07-01T02:18:36;1.42;;;1.27;;
65459;SDS011;52058;49.822;6.754;2022-07-01T02:21:02;1.30;;;1.20;;
65459;SDS011;52058;49.822;6.754;2022-07-01T02:23:28;2.28;;;1.50;;
65459;SDS011;52058;49.822;6.754;2022-07-01T02:25:54;3.40;;;1.20;;
65459;SDS011;52058;49.822;6.754;2022-07-01T02:28:20;2.00;;;1.48;;
65459;SDS011;52058;49.822;6.754;2022-07-01T02:30:45;2.90;;;1.30;;
65459;SDS011;52058;49.822;6.754;2022-07-01T02:33:10;2.17;;;1.60;;
65459;SDS011;52058;49.822;6.754;2022-07-01T02:35:36;4.20;;;2.00;;
65459;SDS011;52058;49.822;6.754;2022-07-01T02:38:03;3.53;;;1.50;;
65459;SDS011;52058;49.822;6.754;2022-07-01T02:40:29;2.67;;;1.85;;
65459;SDS011;52058;49.822;6.754;2022-07-01T02:42:54;3.53;;;1.60;;
65459;SDS011;52058;49.822;6.754;2022-07-01T02:45:20;2.00;;;1.55;;
65459;SDS011;52058;49.822;6.754;2022-07-01T02:47:46;1.60;;;1.50;;
65459;SDS011;52058;49.822;6.754;2022-07-01T02:50:11;2.05;;;1.70;;
65459;SDS011;52058;49.822;6.754;2022-07-01T02:52:39;1.88;;;1.70;;
65459;SDS011;52058;49.822;6.754;2022-07-01T02:55:06;2.88;;;1.50;;
65459;SDS011;52058;49.822;6.754;2022-07-01T02:57:33;1.60;;;1.50;;
65459;SDS011;52058;49.822;6.754;2022-07-01T02:59:59;1.95;;;1.30;;
65459;SDS011;52058;49.822;6.754;2022-07-01T03:02:24;3.65;;;1.70;;
65459;SDS011;52058;49.822;6.754;2022-07-01T03:04:51;1.55;;;1.38;;
65459;SDS011;52058;49.822;6.754;2022-07-01T03:07:17;2.03;;;1.20;;
65459;SDS011;52058;49.822;6.754;2022-07-01T03:09:44;2.33;;;1.55;;
65459;SDS011;52058;49.822;6.754;2022-07-01T03:12:10;1.60;;;1.50;;
65459;SDS011;52058;49.822;6.754;2022-07-01T03:14:55;2.10;;;1.52;;
65459;SDS011;52058;49.822;6.754;2022-07-01T03:17:25;3.08;;;1.40;;
65459;SDS011;52058;49.822;6.754;2022-07-01T03:19:52;2.50;;;1.90;;
65459;SDS011;52058;49.822;6.754;2022-07-01T03:22:18;2.33;;;1.70;;
65459;SDS011;52058;49.822;6.754;2022-07-01T03:24:45;3.30;;;1.38;;
65459;SDS011;52058;49.822;6.754;2022-07-01T03:27:11;2.28;;;1.75;;
65459;SDS011;52058;49.822;6.754;2022-07-01T03:29:36;3.22;;;1.48;;
65459;SDS011;52058;49.822;6.754;2022-07-01T03:32:02;2.83;;;1.75;;
65459;SDS011;52058;49.822;6.754;2022-07-01T03:34:27;2.35;;;2.00;;
65459;SDS011;52058;49.822;6.754;2022-07-01T03:36:53;2.25;;;1.60;;
65459;SDS011;52058;49.822;6.754;2022-07-01T03:39:18;4.35;;;1.60;;
65459;SDS011;52058;49.822;6.754;2022-07-01T03:41:44;1.60;;;1.50;;
65459;SDS011;52058;49.822;6.754;2022-07-01T03:44:09;1.90;;;1.70;;
65459;SDS011;52058;49.822;6.754;2022-07-01T03:46:34;2.42;;;1.52;;
65459;SDS011;52058;49.822;6.754;2022-07-01T03:49:01;2.55;;;1.77;;
65459;SDS011;52058;49.822;6.754;2022-07-01T03:51:27;2.38;;;1.60;;
65459;SDS011;52058;49.822;6.754;2022-07-01T03:53:52;1.98;;;1.60;;
65459;SDS011;52058;49.822;6.754;2022-07-01T03:56:36;3.97;;;1.40;;
65459;SDS011;52058;49.822;6.754;2022-07-01T03:59:01;2.67;;;1.60;;
65459;SDS011;52058;49.822;6.754;2022-07-01T04:01:26;4.18;;;1.90;;
65459;SDS011;52058;49.822;6.754;2022-07-01T04:03:52;1.88;;;1.38;;
65459;SDS011;52058;49.822;6.754;2022-07-01T04:06:17;1.50;;;1.40;;
65459;SDS011;52058;49.822;6.754;2022-07-01T04:08:43;3.67;;;1.80;;
65459;SDS011;52058;49.822;6.754;2022-07-01T04:11:09;1.70;;;1.38;;
65459;SDS011;52058;49.822;6.754;2022-07-01T04:13:35;3.95;;;1.50;;
65459;SDS011;52058;49.822;6.754;2022-07-01T04:16:04;2.17;;;1.70;;
65459;SDS011;52058;49.822;6.754;2022-07-01T04:18:29;2.85;;;1.50;;
65459;SDS011;52058;49.822;6.754;2022-07-01T04:20:55;3.72;;;1.88;;
65459;SDS011;52058;49.822;6.754;2022-07-01T04:23:39;2.10;;;1.40;;
65459;SDS011;52058;49.822;6.754;2022-07-01T04:26:04;3.85;;;1.48;;
65459;SDS011;52058;49.822;6.754;2022-07-01T04:28:30;2.50;;;1.60;;
65459;SDS011;52058;49.822;6.754;2022-07-01T04:30:55;1.40;;;1.27;;
65459;SDS011;52058;49.822;6.754;2022-07-01T04:33:20;4.13;;;1.50;;
65459;SDS011;52058;49.822;6.754;2022-07-01T04:35:46;2.25;;;1.40;;
65459;SDS011;52058;49.822;6.754;2022-07-01T04:38:11;2.55;;;1.33;;
65459;SDS011;52058;49.822;6.754;2022-07-01T04:40:36;1.38;;;1.27;;
65459;SDS011;52058;49.822;6.754;2022-07-01T04:43:02;1.85;;;1.38;;
65459;SDS011;52058;49.822;6.754;2022-07-01T04:45:27;3.75;;;1.52;;
65459;SDS011;52058;49.822;6.754;2022-07-01T04:47:52;6.55;;;1.48;;
65459;SDS011;52058;49.822;6.754;2022-07-01T04:50:18;3.10;;;1.60;;
65459;SDS011;52058;49.822;6.754;2022-07-01T04:52:43;2.95;;;1.40;;
65459;SDS011;52058;49.822;6.754;2022-07-01T04:55:08;2.83;;;1.35;;
65459;SDS011;52058;49.822;6.754;2022-07-01T04:57:33;3.00;;;1.35;;
65459;SDS011;52058;49.822;6.754;2022-07-01T04:59:59;2.72;;;1.40;;
65459;SDS011;52058;49.822;6.754;2022-07-01T05:02:24;4.60;;;1.40;;
65459;SDS011;52058;49.822;6.754;2022-07-01T05:04:49;1.88;;;1.30;;
65459;SDS011;52058;49.822;6.754;2022-07-01T05:07:15;3.10;;;1.75;;
65459;SDS011;52058;49.822;6.754;2022-07-01T05:09:56;1.52;;;1.02;;
65459;SDS011;52058;49.822;6.754;2022-07-01T05:12:22;2.10;;;1.20;;
65459;SDS011;52058;49.822;6.754;2022-07-01T05:14:48;3.17;;;1.30;;
65459;SDS011;52058;49.822;6.754;2022-07-01T05:17:15;2.97;;;1.20;;
65459;SDS011;52058;49.822;6.754;2022-07-01T05:19:40;2.92;;;1.70;;
65459;SDS011;52058;49.822;6.754;2022-07-01T05:22:24;2.00;;;1.20;;
65459;SDS011;52058;49.822;6.754;2022-07-01T05:24:49;2.13;;;1.20;;
65459;SDS011;52058;49.822;6.754;2022-07-01T05:27:15;1.70;;;1.25;;
65459;SDS011;52058;49.822;6.754;2022-07-01T05:29:40;5.75;;;1.60;;
65459;SDS011;52058;49.822;6.754;2022-07-01T05:32:05;2.83;;;1.50;;
65459;SDS011;52058;49.822;6.754;2022-07-01T05:34:31;2.90;;;1.40;;
65459;SDS011;52058;49.822;6.754;2022-07-01T05:36:56;5.88;;;1.95;;
65459;SDS011;52058;49.822;6.754;2022-07-01T05:39:22;3.58;;;1.30;;
65459;SDS011;52058;49.822;6.754;2022-07-01T05:41:47;1.83;;;1.50;;
65459;SDS011;52058;49.822;6.754;2022-07-01T05:44:13;2.83;;;1.40;;
65459;SDS011;52058;49.822;6.754;2022-07-01T05:46:38;2.95;;;1.42;;
65459;SDS011;52058;49.822;6.754;2022-07-01T05:49:04;2.38;;;1.38;;
65459;SDS011;52058;49.822;6.754;2022-07-01T05:51:29;3.30;;;1.50;;
65459;SDS011;52058;49.822;6.754;2022-07-01T05:53:55;4.40;;;1.60;;
65459;SDS011;52058;49.822;6.754;2022-07-01T05:56:21;3.83;;;1.10;;
65459;SDS011;52058;49.822;6.754;2022-07-01T05:58:47;3.22;;;1.35;;
65459;SDS011;52058;49.822;6.754;2022-07-01T06:01:12;4.55;;;1.40;;
65459;SDS011;52058;49.822;6.754;2022-07-01T06:03:37;3.00;;;1.08;;
65459;SDS011;52058;49.822;6.754;2022-07-01T06:06:03;1.75;;;1.08;;
65459;SDS011;52058;49.822;6.754;2022-07-01T06:08:28;4.10;;;1.45;;
65459;SDS011;52058;49.822;6.754;2022-07-01T06:10:54;2.45;;;1.10;;
65459;SDS011;52058;49.822;6.754;2022-07-01T06:13:19;3.28;;;1.20;;
65459;SDS011;52058;49.822;6.754;2022-07-01T06:15:44;1.35;;;1.00;;
65459;SDS011;52058;49.822;6.754;2022-07-01T06:18:10;1.73;;;1.20;;
65459;SDS011;52058;49.822;6.754;2022-07-01T06:20:35;2.13;;;1.30;;
65459;SDS011;52058;49.822;6.754;2022-07-01T06:23:00;2.88;;;1.10;;
65459;SDS011;52058;49.822;6.754;2022-07-01T06:25:26;2.50;;;1.02;;
65459;SDS011;52058;49.822;6.754;2022-07-01T06:27:51;2.65;;;1.00;;
65459;SDS011;52058;49.822;6.754;2022-07-01T06:30:16;4.53;;;1.55;;
65459;SDS011;52058;49.822;6.754;2022-07-01T06:32:42;2.33;;;0.98;;
65459;SDS011;52058;49.822;6.754;2022-07-01T06:35:07;2.20;;;0.93;;
65459;SDS011;52058;49.822;6.754;2022-07-01T06:37:33;2.05;;;1.00;;
65459;SDS011;52058;49.822;6.754;2022-07-01T06:40:01;1.65;;;1.10;;
65459;SDS011;52058;49.822;6.754;2022-07-01T06:42:30;1.73;;;0.93;;
65459;SDS011;52058;49.822;6.754;2022-07-01T06:44:55;4.22;;;0.90;;
65459;SDS011;52058;49.822;6.754;2022-07-01T06:47:20;3.13;;;1.00;;
65459;SDS011;52058;49.822;6.754;2022-07-01T06:49:46;2.42;;;0.90;;
65459;SDS011;52058;49.822;6.754;2022-07-01T06:52:11;3.13;;;1.20;;
65459;SDS011;52058;49.822;6.754;2022-07-01T06:54:36;1.60;;;0.98;;
65459;SDS011;52058;49.822;6.754;2022-07-01T06:57:02;3.85;;;1.00;;
65459;SDS011;52058;49.822;6.754;2022-07-01T06:59:29;2.22;;;1.40;;
65459;SDS011;52058;49.822;6.754;2022-07-01T07:01:54;2.67;;;1.17;;
65459;SDS011;52058;49.822;6.754;2022-07-01T07:04:19;2.03;;;1.10;;
65459;SDS011;52058;49.822;6.754;2022-07-01T07:06:45;4.38;;;1.00;;
65459;SDS011;52058;49.822;6.754;2022-07-01T07:09:10;2.58;;;1.08;;
65459;SDS011;52058;49.822;6.754;2022-07-01T07:11:35;1.40;;;1.10;;
65459;SDS011;52058;49.822;6.754;2022-07-01T07:14:01;1.63;;;1.00;;
65459;SDS011;52058;49.822;6.754;2022-07-01T07:16:26;5.03;;;1.20;;
65459;SDS011;52058;49.822;6.754;2022-07-01T07:18:52;4.18;;;1.58;;
65459;SDS011;52058;49.822;6.754;2022-07-01T07:21:18;3.45;;;1.20;;
65459;SDS011;52058;49.822;6.754;2022-07-01T07:23:43;2.40;;;1.05;;
65459;SDS011;52058;49.822;6.754;2022-07-01T07:26:09;3.03;;;1.13;;
65459;SDS011;52058;49.822;6.754;2022-07-01T07:28:34;1.70;;;1.10;;
65459;SDS011;52058;49.822;6.754;2022-07-01T07:31:00;1.58;;;1.15;;
65459;SDS011;52058;49.822;6.754;2022-07-01T07:33:25;4.60;;;1.33;;
65459;SDS011;52058;49.822;6.754;2022-07-01T07:35:50;3.90;;;0.82;;
65459;SDS011;52058;49.822;6.754;2022-07-01T07:38:16;1.23;;;0.95;;
65459;SDS011;52058;49.822;6.754;2022-07-01T07:40:41;1.50;;;1.08;;
65459;SDS011;52058;49.822;6.754;2022-07-01T07:43:07;2.78;;;1.20;;
65459;SDS011;52058;49.822;6.754;2022-07-01T07:45:33;2.45;;;1.05;;
65459;SDS011;52058;49.822;6.754;2022-07-01T07:47:58;5.93;;;1.10;;
65459;SDS011;52058;49.822;6.754;2022-07-01T07:50:24;4.55;;;1.20;;
65459;SDS011;52058;49.822;6.754;2022-07-01T07:52:50;4.40;;;1.20;;
65459;SDS011;52058;49.822;6.754;2022-07-01T07:55:15;3.42;;;1.08;;
65459;SDS011;52058;49.822;6.754;2022-07-01T07:57:40;2.55;;;1.10;;
65459;SDS011;52058;49.822;6.754;2022-07-01T08:00:06;3.67;;;1.15;;
65459;SDS011;52058;49.822;6.754;2022-07-01T08:02:33;3.70;;;1.10;;
65459;SDS011;52058;49.822;6.754;2022-07-01T08:04:59;2.22;;;1.00;;
65459;SDS011;52058;49.822;6.754;2022-07-01T08:07:24;2.13;;;0.90;;
65459;SDS011;52058;49.822;6.754;2022-07-01T08:09:49;5.15;;;1.02;;
65459;SDS011;52058;49.822;6.754;2022-07-01T08:12:15;3.08;;;1.13;;
65459;SDS011;52058;49.822;6.754;2022-07-01T08:14:41;3.30;;;0.80;;
65459;SDS011;52058;49.822;6.754;2022-07-01T08:17:07;3.22;;;1.10;;
65459;SDS011;52058;49.822;6.754;2022-07-01T08:19:32;4.03;;;1.00;;
65459;SDS011;52058;49.822;6.754;2022-07-01T08:21:57;1.15;;;0.80;;
65459;SDS011;52058;49.822;6.754;2022-07-01T08:24:22;0.80;;;0.80;;
65459;SDS011;52058;49.822;6.754;2022-07-01T08:26:48;1.88;;;0.90;;
65459;SDS011;52058;49.822;6.754;2022-07-01T08:29:13;1.10;;;0.90;;
65459;SDS011;52058;49.822;6.754;2022-07-01T08:31:39;3.50;;;1.13;;
65459;SDS011;52058;49.822;6.754;2022-07-01T08:34:04;4.32;;;1.05;;
65459;SDS011;52058;49.822;6.754;2022-07-01T08:36:30;1.17;;;0.75;;
65459;SDS011;52058;49.822;6.754;2022-07-01T08:38:55;4.47;;;1.58;;
65459;SDS011;52058;49.822;6.754;2022-07-01T08:41:20;1.73;;;0.80;;
65459;SDS011;52058;49.822;6.754;2022-07-01T08:43:46;1.48;;;0.95;;
65459;SDS011;52058;49.822;6.754;2022-07-01T08:46:11;3.97;;;0.90;;
65459;SDS011;52058;49.822;6.754;2022-07-01T08:48:37;0.80;;;0.80;;
65459;SDS011;52058;49.822;6.754;2022-07-01T08:51:07;1.80;;;0.80;;
65459;SDS011;52058;49.822;6.754;2022-07-01T08:53:32;2.55;;;0.88;;
65459;SDS011;52058;49.822;6.754;2022-07-01T08:55:57;1.40;;;0.80;;
65459;SDS011;52058;49.822;6.754;2022-07-01T08:58:41;2.22;;;0.70;;
65459;SDS011;52058;49.822;6.754;2022-07-01T09:01:23;3.38;;;0.77;;
65459;SDS011;52058;49.822;6.754;2022-07-01T09:03:51;2.33;;;0.70;;
65459;SDS011;52058;49.822;6.754;2022-07-01T09:06:20;2.35;;;0.85;;
65459;SDS011;52058;49.822;6.754;2022-07-01T09:08:50;1.48;;;0.70;;
65459;SDS011;52058;49.822;6.754;2022-07-01T09:11:25;1.33;;;0.70;;
65459;SDS011;52058;49.822;6.754;2022-07-01T09:14:10;2.95;;;0.75;;
65459;SDS011;52058;49.822;6.754;2022-07-01T09:16:43;2.58;;;0.80;;
65459;SDS011;52058;49.822;6.754;2022-07-01T09:19:20;0.95;;;0.73;;
65459;SDS011;52058;49.822;6.754;2022-07-01T09:21:47;1.38;;;0.93;;
65459;SDS011;52058;49.822;6.754;2022-07-01T09:24:34;1.42;;;0.90;;
65459;SDS011;52058;49.822;6.754;2022-07-01T09:27:02;2.80;;;0.80;;
65459;SDS011;52058;49.822;6.754;2022-07-01T09:29:34;4.57;;;1.00;;
65459;SDS011;52058;49.822;6.754;2022-07-01T09:32:01;2.63;;;0.90;;
65459;SDS011;52058;49.822;6.754;2022-07-01T09:34:45;3.00;;;1.00;;
65459;SDS011;52058;49.822;6.754;2022-07-01T09:37:12;1.55;;;0.77;;
65459;SDS011;52058;49.822;6.754;2022-07-01T09:39:43;1.30;;;0.80;;
65459;SDS011;52058;49.822;6.754;2022-07-01T09:42:16;1.42;;;0.95;;
65459;SDS011;52058;49.822;6.754;2022-07-01T09:47:32;0.70;;;0.60;;
65459;SDS011;52058;49.822;6.754;2022-07-01T09:50:00;1.15;;;0.70;;
65459;SDS011;52058;49.822;6.754;2022-07-01T09:52:27;1.17;;;0.52;;
65459;SDS011;52058;49.822;6.754;2022-07-01T09:54:53;1.85;;;0.80;;
65459;SDS011;52058;49.822;6.754;2022-07-01T09:57:19;1.23;;;0.60;;
65459;SDS011;52058;49.822;6.754;2022-07-01T09:59:45;2.35;;;0.77;;
65459;SDS011;52058;49.822;6.754;2022-07-01T10:02:11;4.78;;;0.70;;
65459;SDS011;52058;49.822;6.754;2022-07-01T10:04:38;1.27;;;0.60;;
65459;SDS011;52058;49.822;6.754;2022-07-01T10:07:13;2.10;;;0.85;;
65459;SDS011;52058;49.822;6.754;2022-07-01T10:12:36;2.13;;;0.50;;
65459;SDS011;52058;49.822;6.754;2022-07-01T10:15:07;2.10;;;0.50;;
65459;SDS011;52058;49.822;6.754;2022-07-01T10:17:35;2.67;;;0.70;;
65459;SDS011;52058;49.822;6.754;2022-07-01T10:20:07;2.13;;;0.70;;
65459;SDS011;52058;49.822;6.754;2022-07-01T10:22:35;0.93;;;0.77;;
65459;SDS011;52058;49.822;6.754;2022-07-01T10:30:48;2.45;;;0.70;;
65459;SDS011;52058;49.822;6.754;2022-07-01T10:39:22;1.02;;;0.50;;
65459;SDS011;52058;49.822;6.754;2022-07-01T10:44:00;0.90;;;0.57;;
65459;SDS011;52058;49.822;6.754;2022-07-01T10:52:09;1.67;;;0.52;;
65459;SDS011;52058;49.822;6.754;2022-07-01T11:02:34;2.05;;;0.70;;
65459;SDS011;52058;49.822;6.754;2022-07-01T11:05:03;0.63;;;0.50;;
65459;SDS011;52058;49.822;6.754;2022-07-01T11:07:32;2.53;;;0.73;;
65459;SDS011;52058;49.822;6.754;2022-07-01T11:10:00;3.30;;;0.60;;
65459;SDS011;52058;49.822;6.754;2022-07-01T11:12:29;2.08;;;0.77;;
65459;SDS011;52058;49.822;6.754;2022-07-01T11:14:55;2.78;;;0.80;;
65459;SDS011;52058;49.822;6.754;2022-07-01T11:17:22;1.30;;;0.50;;
65459;SDS011;52058;49.822;6.754;2022-07-01T11:19:48;0.95;;;0.50;;
65459;SDS011;52058;49.822;6.754;2022-07-01T11:22:22;1.20;;;0.70;;
65459;SDS011;52058;49.822;6.754;2022-07-01T11:24:53;1.35;;;0.65;;
65459;SDS011;52058;49.822;6.754;2022-07-01T11:27:20;1.63;;;0.50;;
65459;SDS011;52058;49.822;6.754;2022-07-01T11:29:50;3.00;;;0.70;;
65459;SDS011;52058;49.822;6.754;2022-07-01T11:32:23;2.95;;;0.63;;
65459;SDS011;52058;49.822;6.754;2022-07-01T11:34:52;1.33;;;0.82;;
65459;SDS011;52058;49.822;6.754;2022-07-01T11:37:18;3.85;;;0.80;;
65459;SDS011;52058;49.822;6.754;2022-07-01T11:40:06;1.70;;;0.77;;
65459;SDS011;52058;49.822;6.754;2022-07-01T11:42:33;1.40;;;0.80;;
65459;SDS011;52058;49.822;6.754;2022-07-01T11:44:58;0.80;;;0.55;;
65459;SDS011;52058;49.822;6.754;2022-07-01T11:47:24;1.87;;;0.60;;
65459;SDS011;52058;49.822;6.754;2022-07-01T11:49:51;2.05;;;0.60;;
65459;SDS011;52058;49.822;6.754;2022-07-01T11:52:17;1.00;;;0.60;;
65459;SDS011;52058;49.822;6.754;2022-07-01T11:54:45;2.30;;;0.65;;
65459;SDS011;52058;49.822;6.754;2022-07-01T11:57:13;2.42;;;0.70;;
65459;SDS011;52058;49.822;6.754;2022-07-01T11:59:42;1.80;;;0.55;;
65459;SDS011;52058;49.822;6.754;2022-07-01T12:02:09;2.08;;;0.60;;
65459;SDS011;52058;49.822;6.754;2022-07-01T12:04:36;1.83;;;0.50;;
65459;SDS011;52058;49.822;6.754;2022-07-01T12:07:01;1.90;;;0.60;;
65459;SDS011;52058;49.822;6.754;2022-07-01T12:09:27;1.10;;;0.50;;
65459;SDS011;52058;49.822;6.754;2022-07-01T12:11:53;1.40;;;0.50;;
65459;SDS011;52058;49.822;6.754;2022-07-01T12:14:19;4.13;;;0.95;;
65459;SDS011;52058;49.822;6.754;2022-07-01T12:16:57;1.17;;;0.70;;
65459;SDS011;52058;49.822;6.754;2022-07-01T12:19:27;2.65;;;0.68;;
65459;SDS011;52058;49.822;6.754;2022-07-01T12:21:54;4.05;;;0.70;;
65459;SDS011;52058;49.822;6.754;2022-07-01T12:24:23;0.40;;;0.40;;
65459;SDS011;52058;49.822;6.754;2022-07-01T12:29:24;2.53;;;0.80;;
65459;SDS011;52058;49.822;6.754;2022-07-01T12:31:54;0.82;;;0.47;;
65459;SDS011;52058;49.822;6.754;2022-07-01T12:34:20;0.95;;;0.70;;
65459;SDS011;52058;49.822;6.754;2022-07-01T12:36:49;1.83;;;0.90;;
65459;SDS011;52058;49.822;6.754;2022-07-01T12:39:15;2.58;;;0.50;;
65459;SDS011;52058;49.822;6.754;2022-07-01T12:41:48;1.80;;;0.63;;
65459;SDS011;52058;49.822;6.754;2022-07-01T12:44:21;1.67;;;0.57;;
65459;SDS011;52058;49.822;6.754;2022-07-01T12:46:50;0.90;;;0.70;;
65459;SDS011;52058;49.822;6.754;2022-07-01T12:49:23;1.10;;;0.70;;
65459;SDS011;52058;49.822;6.754;2022-07-01T12:51:49;0.77;;;0.57;;
65459;SDS011;52058;49.822;6.754;2022-07-01T12:54:32;0.32;;;0.30;;
65459;SDS011;52058;49.822;6.754;2022-07-01T12:56:59;1.45;;;0.80;;
65459;SDS011;52058;49.822;6.754;2022-07-01T12:59:25;4.55;;;0.90;;
65459;SDS011;52058;49.822;6.754;2022-07-01T13:01:51;2.65;;;0.70;;
65459;SDS011;52058;49.822;6.754;2022-07-01T13:04:28;3.28;;;0.80;;
65459;SDS011;52058;49.822;6.754;2022-07-01T13:06:54;2.58;;;0.80;;
65459;SDS011;52058;49.822;6.754;2022-07-01T13:09:20;1.02;;;0.70;;
65459;SDS011;52058;49.822;6.754;2022-07-01T13:11:45;1.70;;;0.70;;
65459;SDS011;52058;49.822;6.754;2022-07-01T13:14:10;2.95;;;0.70;;
65459;SDS011;52058;49.822;6.754;2022-07-01T13:16:36;2.97;;;0.70;;
65459;SDS011;52058;49.822;6.754;2022-07-01T13:19:01;0.60;;;0.50;;
65459;SDS011;52058;49.822;6.754;2022-07-01T13:21:26;1.38;;;0.63;;
65459;SDS011;52058;49.822;6.754;2022-07-01T13:23:52;1.08;;;0.60;;
65459;SDS011;52058;49.822;6.754;2022-07-01T13:26:17;2.17;;;0.60;;
65459;SDS011;52058;49.822;6.754;2022-07-01T13:28:42;0.65;;;0.50;;
65459;SDS011;52058;49.822;6.754;2022-07-01T13:31:08;3.03;;;0.50;;
65459;SDS011;52058;49.822;6.754;2022-07-01T13:33:33;1.45;;;0.57;;
65459;SDS011;52058;49.822;6.754;2022-07-01T13:35:58;0.73;;;0.50;;
65459;SDS011;52058;49.822;6.754;2022-07-01T13:38:24;1.50;;;0.60;;
65459;SDS011;52058;49.822;6.754;2022-07-01T13:40:49;1.73;;;0.52;;
65459;SDS011;52058;49.822;6.754;2022-07-01T13:43:14;2.25;;;0.57;;
65459;SDS011;52058;49.822;6.754;2022-07-01T13:45:41;0.60;;;0.45;;
65459;SDS011;52058;49.822;6.754;2022-07-01T13:48:07;1.42;;;0.57;;
65459;SDS011;52058;49.822;6.754;2022-07-01T13:50:33;0.73;;;0.57;;
65459;SDS011;52058;49.822;6.754;2022-07-01T13:52:58;3.03;;;0.50;;
65459;SDS011;52058;49.822;6.754;2022-07-01T13:55:23;2.47;;;0.65;;
65459;SDS011;52058;49.822;6.754;2022-07-01T13:57:49;1.17;;;0.57;;
65459;SDS011;52058;49.822;6.754;2022-07-01T14:00:14;0.52;;;0.40;;
65459;SDS011;52058;49.822;6.754;2022-07-01T14:02:40;0.60;;;0.50;;
65459;SDS011;52058;49.822;6.754;2022-07-01T14:05:06;2.60;;;0.50;;
65459;SDS011;52058;49.822;6.754;2022-07-01T14:07:31;0.60;;;0.50;;
65459;SDS011;52058;49.822;6.754;2022-07-01T14:09:56;1.05;;;0.57;;
65459;SDS011;52058;49.822;6.754;2022-07-01T14:12:22;1.83;;;0.60;;
65459;SDS011;52058;49.822;6.754;2022-07-01T14:14:47;2.05;;;0.50;;
65459;SDS011;52058;49.822;6.754;2022-07-01T14:17:12;1.00;;;0.52;;
65459;SDS011;52058;49.822;6.754;2022-07-01T14:19:38;1.30;;;0.63;;
65459;SDS011;52058;49.822;6.754;2022-07-01T14:22:03;1.35;;;0.52;;
65459;SDS011;52058;49.822;6.754;2022-07-01T14:24:29;1.35;;;0.50;;
65459;SDS011;52058;49.822;6.754;2022-07-01T14:26:54;2.75;;;0.80;;
65459;SDS011;52058;49.822;6.754;2022-07-01T14:29:20;0.65;;;0.52;;
65459;SDS011;52058;49.822;6.754;2022-07-01T14:31:45;1.05;;;0.40;;
65459;SDS011;52058;49.822;6.754;2022-07-01T14:34:11;1.67;;;0.60;;
65459;SDS011;52058;49.822;6.754;2022-07-01T14:36:36;0.60;;;0.50;;
65459;SDS011;52058;49.822;6.754;2022-07-01T14:39:01;1.05;;;0.50;;
65459;SDS011;52058;49.822;6.754;2022-07-01T14:41:27;4.00;;;0.55;;
65459;SDS011;52058;49.822;6.754;2022-07-01T14:43:52;1.13;;;0.55;;
65459;SDS011;52058;49.822;6.754;2022-07-01T14:46:18;1.88;;;0.65;;
65459;SDS011;52058;49.822;6.754;2022-07-01T14:48:43;1.27;;;0.60;;
65459;SDS011;52058;49.822;6.754;2022-07-01T14:51:08;1.05;;;0.60;;
65459;SDS011;52058;49.822;6.754;2022-07-01T14:53:34;3.35;;;0.70;;
65459;SDS011;52058;49.822;6.754;2022-07-01T14:55:59;1.67;;;0.60;;
65459;SDS011;52058;49.822;6.754;2022-07-01T14:58:25;1.15;;;0.50;;
65459;SDS011;52058;49.822;6.754;2022-07-01T15:00:50;4.38;;;0.80;;
65459;SDS011;52058;49.822;6.754;2022-07-01T15:03:15;2.88;;;0.60;;
65459;SDS011;52058;49.822;6.754;2022-07-01T15:05:41;1.40;;;0.50;;
65459;SDS011;52058;49.822;6.754;2022-07-01T15:08:06;1.52;;;0.60;;
65459;SDS011;52058;49.822;6.754;2022-07-01T15:10:31;1.17;;;0.60;;
65459;SDS011;52058;49.822;6.754;2022-07-01T15:12:57;2.33;;;0.60;;
65459;SDS011;52058;49.822;6.754;2022-07-01T15:15:22;0.55;;;0.50;;
65459;SDS011;52058;49.822;6.754;2022-07-01T15:17:47;1.08;;;0.70;;
65459;SDS011;52058;49.822;6.754;2022-07-01T15:20:14;1.42;;;0.80;;